createdAt,value
2022-12-11T00:00:30.595Z,98297.34
2022-12-11T00:02:57.651Z,98295.16
2022-12-11T00:05:24.672Z,98285.88
2022-12-11T00:07:51.605Z,98253.34
2022-12-11T00:10:18.473Z,98261.31
2022-12-11T00:12:45.356Z,98257.47
2022-12-11T00:15:12.620Z,98248.19
2022-12-11T00:17:39.835Z,98241.72
2022-12-11T00:20:08.154Z,98228.91
2022-12-11T00:22:35.073Z,98219.97
2022-12-11T00:25:02.072Z,98212.81
2022-12-11T00:27:28.873Z,98204.81
2022-12-11T00:29:55.721Z,98194.31
2022-12-11T00:32:22.892Z,98184.28
2022-12-11T00:34:49.707Z,98180.28
2022-12-11T00:37:16.696Z,98195.25
2022-12-11T00:39:43.613Z,98196.38
2022-12-11T00:42:10.488Z,98192.59
2022-12-11T00:44:37.397Z,98209.50
2022-12-11T00:47:04.308Z,98209.66
2022-12-11T00:49:31.403Z,98206.81
2022-12-11T00:51:58.348Z,98202.50
2022-12-11T00:54:25.257Z,98198.84
2022-12-11T00:56:52.178Z,98207.03
2022-12-11T00:59:19.975Z,98184.28
2022-12-11T01:01:46.854Z,98174.28
2022-12-11T01:04:13.787Z,98159.78
2022-12-11T01:06:40.744Z,98153.25
2022-12-11T01:09:26.463Z,98140.31
2022-12-11T01:11:53.472Z,98136.69
2022-12-11T01:14:20.391Z,98132.91
2022-12-11T01:16:47.336Z,98108.00
2022-12-11T01:19:14.275Z,98092.75
2022-12-11T01:21:41.253Z,98077.66
2022-12-11T01:24:08.279Z,98098.78
2022-12-11T01:26:35.150Z,98086.22
2022-12-11T01:29:02.307Z,98086.31
2022-12-11T01:31:29.725Z,98069.72
2022-12-11T01:33:56.739Z,98084.38
2022-12-11T01:36:24.479Z,98079.63
2022-12-11T01:38:51.533Z,98077.91
2022-12-11T01:41:19.080Z,98063.41
2022-12-11T01:44:07.745Z,98070.84
2022-12-11T01:46:36.488Z,98069.75
2022-12-11T01:49:07.497Z,98062.88
2022-12-11T01:51:42.802Z,98059.56
2022-12-11T01:54:13.750Z,98056.53
2022-12-11T01:56:43.819Z,98053.59
2022-12-11T01:59:15.677Z,98053.25
2022-12-11T02:02:22.881Z,98064.09
2022-12-11T02:04:49.893Z,98051.50
2022-12-11T02:07:16.940Z,98051.13
2022-12-11T02:09:47.119Z,98048.47
2022-12-11T02:12:41.587Z,98044.53
2022-12-11T02:15:25.506Z,98040.97
2022-12-11T02:18:10.473Z,98039.63
2022-12-11T02:20:55.890Z,98025.41
2022-12-11T02:23:46.940Z,98032.19
2022-12-11T02:26:49.510Z,98020.09
2022-12-11T02:29:25.990Z,97994.31
2022-12-11T02:32:08.001Z,97988.50
2022-12-11T02:34:43.632Z,97978.50
2022-12-11T02:37:19.258Z,97974.56
2022-12-11T02:39:49.141Z,97956.13
2022-12-11T02:42:16.705Z,97961.56
2022-12-11T02:44:46.462Z,97961.34
2022-12-11T02:47:16.795Z,97963.72
2022-12-11T02:49:47.008Z,97974.69
2022-12-11T02:52:17.700Z,97959.25
2022-12-11T02:54:46.693Z,97950.94
2022-12-11T02:57:25.908Z,97942.25
2022-12-11T02:59:52.797Z,97941.44
2022-12-11T03:02:19.718Z,97941.38
2022-12-11T03:04:47.672Z,97940.97
2022-12-11T03:07:23.508Z,97942.47
2022-12-11T03:09:51.148Z,97927.91
2022-12-11T03:12:29.401Z,97916.25
2022-12-11T03:14:59.735Z,97914.06
2022-12-11T03:17:44.607Z,97921.34
2022-12-11T03:20:20.507Z,97919.38
2022-12-11T03:22:54.990Z,97895.00
2022-12-11T03:25:23.473Z,97893.66
2022-12-11T03:27:52.983Z,97897.78
2022-12-11T03:30:22.450Z,97907.63
2022-12-11T03:32:55.130Z,97906.00
2022-12-11T03:35:27.716Z,97901.38
2022-12-11T03:37:56.926Z,97899.94
2022-12-11T03:40:26.169Z,97898.22
2022-12-11T03:42:56.820Z,97903.78
2022-12-11T03:45:26.277Z,97898.66
2022-12-11T03:47:55.951Z,97889.84
2022-12-11T03:50:26.129Z,97894.16
2022-12-11T03:52:54.496Z,97888.38
2022-12-11T03:55:23.026Z,97887.91
2022-12-11T03:57:50.018Z,97909.84
2022-12-11T04:00:20.044Z,97907.63
2022-12-11T04:03:12.740Z,97901.22
2022-12-11T04:05:44.101Z,97907.38
2022-12-11T04:08:11.435Z,97909.53
2022-12-11T04:10:38.869Z,97906.50
2022-12-11T04:13:05.923Z,97899.84
2022-12-11T04:15:33.196Z,97898.69
2022-12-11T04:18:18.610Z,97908.53
2022-12-11T04:21:04.185Z,97918.34
2022-12-11T04:23:49.478Z,97930.44
2022-12-11T04:26:18.834Z,97935.47
2022-12-11T04:28:49.362Z,97926.44
2022-12-11T04:31:22.527Z,97922.41
2022-12-11T04:33:49.646Z,97907.50
2022-12-11T04:36:16.866Z,97915.25
2022-12-11T04:38:43.781Z,97904.91
2022-12-11T04:41:13.926Z,97886.19
2022-12-11T04:43:40.888Z,97897.41
2022-12-11T04:46:12.851Z,97904.97
2022-12-11T04:48:39.914Z,97906.56
2022-12-11T04:51:07.460Z,97904.53
2022-12-11T04:53:35.270Z,97912.44
2022-12-11T04:56:05.939Z,97909.59
2022-12-11T04:58:33.074Z,97905.28
2022-12-11T05:00:59.919Z,97920.38
2022-12-11T05:03:26.934Z,97911.97
2022-12-11T05:05:54.228Z,97909.34
2022-12-11T05:08:21.783Z,97905.84
2022-12-11T05:11:06.933Z,97910.03
2022-12-11T05:13:33.985Z,97917.88
2022-12-11T05:16:03.246Z,97913.09
2022-12-11T05:18:30.077Z,97918.81
2022-12-11T05:21:09.502Z,97921.66
2022-12-11T05:23:36.857Z,97912.78
2022-12-11T05:26:06.785Z,97906.38
2022-12-11T05:28:36.846Z,97910.69
2022-12-11T05:31:11.811Z,97919.03
2022-12-11T05:33:38.749Z,97888.31
2022-12-11T05:36:07.662Z,97894.78
2022-12-11T05:38:34.680Z,97895.38
2022-12-11T05:41:03.979Z,97902.25
2022-12-11T05:43:34.058Z,97904.13
2022-12-11T05:46:08.922Z,97915.50
2022-12-11T05:48:36.959Z,97915.50
2022-12-11T05:51:05.237Z,97914.41
2022-12-11T05:53:33.042Z,97916.66
2022-12-11T05:56:08.384Z,97910.03
2022-12-11T05:58:35.521Z,97917.41
2022-12-11T06:01:06.716Z,97930.19
2022-12-11T06:03:33.609Z,97932.69
2022-12-11T06:06:07.695Z,97932.13
2022-12-11T06:08:35.342Z,97927.38
2022-12-11T06:11:03.127Z,97927.41
2022-12-11T06:13:30.303Z,97936.69
2022-12-11T06:16:01.982Z,97931.25
2022-12-11T06:18:28.898Z,97924.28
2022-12-11T06:20:55.770Z,97926.50
2022-12-11T06:23:22.826Z,97932.94
2022-12-11T06:25:49.647Z,97929.31
2022-12-11T06:28:16.676Z,97912.38
2022-12-11T06:30:43.721Z,97920.81
2022-12-11T06:33:10.743Z,97922.41
2022-12-11T06:36:32.138Z,97932.97
2022-12-11T06:38:59.142Z,97927.53
2022-12-11T06:41:26.116Z,97932.06
2022-12-11T06:43:52.940Z,97932.34
2022-12-11T06:46:20.364Z,97941.50
2022-12-11T06:48:47.999Z,97942.81
2022-12-11T06:51:17.510Z,97957.88
2022-12-11T06:53:44.677Z,97964.00
2022-12-11T06:56:14.978Z,97961.59
2022-12-11T06:58:43.153Z,97969.09
2022-12-11T07:01:19.934Z,97969.34
2022-12-11T07:03:47.571Z,97986.88
2022-12-11T07:06:15.404Z,97974.81
2022-12-11T07:08:42.282Z,97969.06
2022-12-11T07:11:12.556Z,97988.22
2022-12-11T07:13:39.619Z,97985.84
2022-12-11T07:16:10.840Z,97983.66
2022-12-11T07:18:39.192Z,97981.75
2022-12-11T07:21:07.279Z,97976.09
2022-12-11T07:23:35.505Z,97975.88
2022-12-11T07:26:07.546Z,97977.06
2022-12-11T07:28:35.109Z,97986.66
2022-12-11T07:31:09.686Z,97989.63
2022-12-11T07:33:36.621Z,97991.56
2022-12-11T07:36:06.009Z,97977.50
2022-12-11T07:38:33.031Z,97975.41
2022-12-11T07:41:08.610Z,97975.56
2022-12-11T07:43:36.383Z,97975.13
2022-12-11T07:46:05.649Z,97994.00
2022-12-11T07:48:32.707Z,98000.53
2022-12-11T07:51:12.600Z,98002.63
2022-12-11T07:53:39.439Z,97995.94
2022-12-11T07:56:07.045Z,98000.94
2022-12-11T07:58:34.445Z,97994.75
2022-12-11T08:01:01.320Z,97998.84
2022-12-11T08:03:28.151Z,97987.94
2022-12-11T08:05:55.533Z,97978.53
2022-12-11T08:08:22.483Z,97978.56
2022-12-11T08:10:49.491Z,97985.38
2022-12-11T08:13:16.373Z,97976.88
2022-12-11T08:15:43.272Z,97977.75
2022-12-11T08:18:10.229Z,97974.47
2022-12-11T08:20:39.242Z,97981.44
2022-12-11T08:23:06.134Z,97972.22
2022-12-11T08:25:33.111Z,97980.09
2022-12-11T08:27:59.917Z,97971.47
2022-12-11T08:30:26.832Z,97976.44
2022-12-11T08:32:53.818Z,97975.19
2022-12-11T08:35:20.702Z,97969.66
2022-12-11T08:37:47.557Z,97968.41
2022-12-11T08:40:14.515Z,97971.91
2022-12-11T08:42:41.498Z,97973.38
2022-12-11T08:45:09.399Z,97965.50
2022-12-11T08:47:36.754Z,97948.44
2022-12-11T08:50:04.571Z,97951.72
2022-12-11T08:52:34.549Z,97957.25
2022-12-11T08:55:01.424Z,97937.72
2022-12-11T08:57:28.740Z,97929.06
2022-12-11T08:59:55.614Z,97932.97
2022-12-11T09:02:22.738Z,97938.53
2022-12-11T09:04:49.711Z,97942.84
2022-12-11T09:07:16.657Z,97944.25
2022-12-11T09:09:43.627Z,97958.47
2022-12-11T09:12:10.481Z,97958.03
2022-12-11T09:14:37.280Z,97959.28
2022-12-11T09:17:05.601Z,97952.53
2022-12-11T09:19:32.749Z,97951.47
2022-12-11T09:21:59.666Z,97951.91
2022-12-11T09:24:26.441Z,97940.81
2022-12-11T09:26:54.664Z,97939.38
2022-12-11T09:29:21.464Z,97935.47
2022-12-11T09:31:49.606Z,97943.09
2022-12-11T09:34:16.411Z,97937.75
2022-12-11T09:36:44.383Z,97942.66
2022-12-11T09:39:13.225Z,97941.44
2022-12-11T09:41:53.145Z,97938.34
2022-12-11T09:44:31.570Z,97940.97
2022-12-11T09:46:59.615Z,97936.47
2022-12-11T09:49:58.245Z,97940.78
2022-12-11T09:52:58.053Z,97942.81
2022-12-11T09:55:29.851Z,97940.78
2022-12-11T09:57:56.765Z,97934.22
2022-12-11T10:00:37.542Z,97920.81
2022-12-11T10:03:19.250Z,97927.41
2022-12-11T10:06:02.681Z,97920.00
2022-12-11T10:08:31.327Z,97917.34
2022-12-11T10:11:40.374Z,97906.47
2022-12-11T10:14:45.768Z,97903.16
2022-12-11T10:17:15.961Z,97893.72
2022-12-11T10:19:43.162Z,97906.47
2022-12-11T10:22:30.191Z,97897.22
2022-12-11T10:25:16.561Z,97886.53
2022-12-11T10:27:44.856Z,97896.63
2022-12-11T10:30:24.204Z,97901.53
2022-12-11T10:32:52.830Z,97903.19
2022-12-11T10:35:24.744Z,97907.91
2022-12-11T10:37:55.759Z,97910.59
2022-12-11T10:40:24.797Z,97914.31
2022-12-11T10:42:55.362Z,97911.44
2022-12-11T10:45:22.272Z,97912.47
2022-12-11T10:47:49.212Z,97906.25
2022-12-11T10:50:24.718Z,97896.19
2022-12-11T10:52:53.302Z,97905.25
2022-12-11T10:55:31.290Z,97903.41
2022-12-11T10:58:01.554Z,97900.94
2022-12-11T11:00:35.619Z,97896.00
2022-12-11T11:03:03.582Z,97896.63
2022-12-11T11:05:36.698Z,97901.78
2022-12-11T11:08:25.453Z,97890.81
2022-12-11T11:10:56.806Z,97888.78
2022-12-11T11:13:26.671Z,97879.50
2022-12-11T11:16:21.917Z,97879.09
2022-12-11T11:18:56.286Z,97879.50
2022-12-11T11:21:26.362Z,97871.47
2022-12-11T11:23:54.485Z,97869.84
2022-12-11T11:26:38.269Z,97881.91
2022-12-11T11:29:25.719Z,97871.22
2022-12-11T11:31:52.603Z,97875.56
2022-12-11T11:34:22.399Z,97867.94
2022-12-11T11:36:58.853Z,97862.41
2022-12-11T11:39:25.979Z,97869.38
2022-12-11T11:42:02.945Z,97876.56
2022-12-11T11:44:37.868Z,97865.03
2022-12-11T11:47:19.505Z,97863.13
2022-12-11T11:50:08.631Z,97866.84
2022-12-11T11:52:46.634Z,97868.94
2022-12-11T11:55:26.422Z,97866.09
2022-12-11T11:58:02.399Z,97870.63
2022-12-11T12:00:33.846Z,97873.91
2022-12-11T12:03:02.225Z,97863.44
2022-12-11T12:05:44.125Z,97860.72
2022-12-11T12:08:26.204Z,97866.84
2022-12-11T12:11:19.957Z,97875.66
2022-12-11T12:14:29.136Z,97868.50
2022-12-11T12:17:23.327Z,97862.50
2022-12-11T12:20:08.063Z,97856.94
2022-12-11T12:22:34.844Z,97857.88
2022-12-11T12:25:39.159Z,97859.09
2022-12-11T12:28:52.019Z,97853.66
2022-12-11T12:31:27.877Z,97841.88
2022-12-11T12:34:31.809Z,97838.03
2022-12-11T12:37:45.797Z,97836.72
2022-12-11T12:40:21.964Z,97822.41
2022-12-11T12:43:16.916Z,97814.72
2022-12-11T12:45:59.045Z,97806.44
2022-12-11T12:48:27.460Z,97806.59
2022-12-11T12:50:56.384Z,97802.81
2022-12-11T12:53:27.726Z,97806.50
2022-12-11T12:55:55.405Z,97807.84
2022-12-11T12:58:45.183Z,97814.91
2022-12-11T13:01:22.446Z,97807.03
2022-12-11T13:03:56.680Z,97809.81
2022-12-11T13:06:40.779Z,97807.44
2022-12-11T13:09:18.154Z,97807.47
2022-12-11T13:11:50.228Z,97814.63
2022-12-11T13:14:17.030Z,97816.94
2022-12-11T13:16:46.371Z,97829.66
2022-12-11T13:19:20.240Z,97821.50
2022-12-11T13:22:02.240Z,97824.19
2022-12-11T13:24:32.069Z,97816.50
2022-12-11T13:27:10.628Z,97813.88
2022-12-11T13:29:42.120Z,97810.09
2022-12-11T13:32:18.230Z,97819.13
2022-12-11T13:34:55.112Z,97821.34
2022-12-11T13:37:31.953Z,97823.38
2022-12-11T13:40:00.847Z,97829.56
2022-12-11T13:42:35.518Z,97831.88
2022-12-11T13:45:04.409Z,97828.44
2022-12-11T13:47:32.971Z,97825.94
2022-12-11T13:50:20.733Z,97834.66
2022-12-11T13:52:58.711Z,97838.53
2022-12-11T13:55:28.461Z,97843.06
2022-12-11T13:57:55.283Z,97844.53
2022-12-11T14:00:32.266Z,97845.78
2022-12-11T14:03:03.143Z,97838.59
2022-12-11T14:05:30.293Z,97842.50
2022-12-11T14:08:01.977Z,97853.00
2022-12-11T14:10:31.740Z,97856.91
2022-12-11T14:13:02.809Z,97852.41
2022-12-11T14:15:32.840Z,97866.19
2022-12-11T14:18:00.909Z,97875.44
2022-12-11T14:20:34.005Z,97867.81
2022-12-11T14:23:08.336Z,97869.88
2022-12-11T14:25:35.181Z,97873.59
2022-12-11T14:28:02.117Z,97864.75
2022-12-11T14:30:31.966Z,97867.81
2022-12-11T14:33:02.745Z,97863.09
2022-12-11T14:35:38.730Z,97871.72
2022-12-11T14:38:16.293Z,97864.94
2022-12-11T14:40:47.531Z,97864.13
2022-12-11T14:43:42.771Z,97865.53
2022-12-11T14:46:17.912Z,97863.66
2022-12-11T14:49:01.333Z,97866.75
2022-12-11T14:51:34.608Z,97867.50
2022-12-11T14:54:04.237Z,97880.41
2022-12-11T14:56:31.927Z,97888.41
2022-12-11T14:59:03.985Z,97886.31
2022-12-11T15:01:36.059Z,97894.75
2022-12-11T15:04:16.262Z,97891.63
2022-12-11T15:06:47.979Z,97887.28
2022-12-11T15:09:17.762Z,97896.94
2022-12-11T15:11:45.809Z,97903.94
2022-12-11T15:14:14.296Z,97889.34
2022-12-11T15:16:42.355Z,97898.78
2022-12-11T15:19:20.968Z,97897.38
2022-12-11T15:21:48.079Z,97895.94
2022-12-11T15:24:43.495Z,97909.72
2022-12-11T15:27:37.988Z,97900.25
2022-12-11T15:30:21.918Z,97900.25
2022-12-11T15:32:48.606Z,97901.09
2022-12-11T15:35:26.872Z,97903.56
2022-12-11T15:37:55.761Z,97907.81
2022-12-11T15:40:23.312Z,97904.78
2022-12-11T15:42:51.323Z,97893.09
2022-12-11T15:45:21.669Z,97904.31
2022-12-11T15:47:49.031Z,97899.78
2022-12-11T15:50:25.010Z,97904.72
2022-12-11T15:52:53.469Z,97898.72
2022-12-11T15:55:21.608Z,97899.59
2022-12-11T15:57:53.245Z,97902.41
2022-12-11T16:00:21.365Z,97907.13
2022-12-11T16:02:48.463Z,97902.41
2022-12-11T16:05:15.905Z,97901.56
2022-12-11T16:07:43.017Z,97898.69
2022-12-11T16:10:15.319Z,97902.41
2022-12-11T16:12:43.497Z,97896.63
2022-12-11T16:15:21.471Z,97893.72
2022-12-11T16:17:50.188Z,97895.94
2022-12-11T16:20:17.787Z,97893.22
2022-12-11T16:22:44.784Z,97901.88
2022-12-11T16:25:11.953Z,97900.03
2022-12-11T16:27:39.123Z,97900.53
2022-12-11T16:30:06.677Z,97900.38
2022-12-11T16:32:33.764Z,97902.81
2022-12-11T16:35:01.327Z,97907.94
2022-12-11T16:37:28.305Z,97897.84
2022-12-11T16:39:55.281Z,97909.56
2022-12-11T16:42:22.164Z,97891.56
2022-12-11T16:44:49.152Z,97891.47
2022-12-11T16:47:16.179Z,97891.03
2022-12-11T16:49:43.448Z,97899.47
2022-12-11T16:52:10.775Z,97893.50
2022-12-11T16:54:37.754Z,97895.69
2022-12-11T16:57:04.700Z,97895.03
2022-12-11T16:59:36.838Z,97884.75
2022-12-11T17:02:04.889Z,97897.25
2022-12-11T17:04:31.793Z,97885.28
2022-12-11T17:06:58.811Z,97896.34
2022-12-11T17:09:25.730Z,97884.16
2022-12-11T17:11:53.645Z,97885.75
2022-12-11T17:14:20.509Z,97879.84
2022-12-11T17:16:48.246Z,97884.41
2022-12-11T17:19:15.847Z,97881.31
2022-12-11T17:21:45.893Z,97893.31
2022-12-11T17:24:18.085Z,97886.31
2022-12-11T17:26:44.927Z,97900.56
2022-12-11T17:29:12.394Z,97893.13
2022-12-11T17:31:39.645Z,97891.72
2022-12-11T17:34:06.802Z,97890.69
2022-12-11T17:36:33.824Z,97897.66
2022-12-11T17:39:00.783Z,97891.59
2022-12-11T17:41:27.701Z,97889.56
2022-12-11T17:43:55.630Z,97891.09
2022-12-11T17:46:22.641Z,97876.53
2022-12-11T17:48:49.649Z,97883.13
2022-12-11T17:51:22.058Z,97890.66
2022-12-11T17:53:49.007Z,97896.03
2022-12-11T17:56:16.691Z,97889.25
2022-12-11T17:58:43.877Z,97888.84
2022-12-11T18:01:13.258Z,97888.25
2022-12-11T18:03:41.153Z,97883.69
2022-12-11T18:06:11.248Z,97888.34
2022-12-11T18:08:38.790Z,97881.00
2022-12-11T18:11:11.996Z,97880.31
2022-12-11T18:13:39.609Z,97886.28
2022-12-11T18:16:10.407Z,97879.41
2022-12-11T18:18:37.984Z,97885.38
2022-12-11T18:21:05.819Z,97889.72
2022-12-11T18:23:32.875Z,97897.41
2022-12-11T18:26:00.612Z,97897.69
2022-12-11T18:28:27.499Z,97892.09
2022-12-11T18:30:54.503Z,97897.25
2022-12-11T18:33:21.944Z,97893.38
2022-12-11T18:35:50.621Z,97905.84
2022-12-11T18:38:17.627Z,97907.06
2022-12-11T18:40:45.388Z,97898.13
2022-12-11T18:43:12.277Z,97899.44
2022-12-11T18:45:41.656Z,97900.44
2022-12-11T18:48:09.733Z,97911.06
2022-12-11T18:50:36.598Z,97913.16
2022-12-11T18:53:04.273Z,97912.75
2022-12-11T18:55:32.013Z,97928.59
2022-12-11T18:57:58.842Z,97920.09
2022-12-11T19:00:25.954Z,97925.56
2022-12-11T19:02:52.916Z,97937.25
2022-12-11T19:05:19.906Z,97940.41
2022-12-11T19:07:46.856Z,97956.09
2022-12-11T19:10:14.337Z,97972.28
2022-12-11T19:12:42.938Z,97968.16
2022-12-11T19:15:10.701Z,97965.25
2022-12-11T19:17:38.621Z,97959.66
2022-12-11T19:20:25.399Z,97963.09
2022-12-11T19:22:56.181Z,97971.91
2022-12-11T19:25:23.192Z,97965.47
2022-12-11T19:27:50.551Z,97979.56
2022-12-11T19:30:17.508Z,97983.38
2022-12-11T19:32:45.901Z,97983.47
2022-12-11T19:35:15.105Z,97977.94
2022-12-11T19:37:42.314Z,97992.16
2022-12-11T19:40:09.740Z,97982.25
2022-12-11T19:42:36.620Z,97997.53
2022-12-11T19:45:03.882Z,97991.22
2022-12-11T19:47:30.722Z,97988.44
2022-12-11T19:49:57.702Z,97970.28
2022-12-11T19:52:24.528Z,97989.00
2022-12-11T19:54:51.376Z,97991.78
2022-12-11T19:57:18.311Z,98008.03
2022-12-11T19:59:45.957Z,98004.50
2022-12-11T20:02:15.793Z,98016.13
2022-12-11T20:04:42.721Z,98014.16
2022-12-11T20:07:09.530Z,98011.19
2022-12-11T20:09:36.461Z,98010.19
2022-12-11T20:12:06.188Z,98022.56
2022-12-11T20:14:33.121Z,98037.16
2022-12-11T20:17:16.146Z,98041.94
2022-12-11T20:19:43.067Z,98044.28
2022-12-11T20:22:10.400Z,98049.41
2022-12-11T20:24:37.840Z,98047.41
2022-12-11T20:27:04.823Z,98049.06
2022-12-11T20:29:32.184Z,98043.44
2022-12-11T20:32:01.978Z,98046.91
2022-12-11T20:34:28.891Z,98058.63
2022-12-11T20:36:56.469Z,98072.22
2022-12-11T20:39:24.697Z,98069.72
2022-12-11T20:41:51.525Z,98063.59
2022-12-11T20:44:20.350Z,98069.59
2022-12-11T20:46:47.186Z,98083.00
2022-12-11T20:49:14.153Z,98084.13
2022-12-11T20:51:41.229Z,98083.84
2022-12-11T20:54:08.430Z,98084.66
2022-12-11T20:56:35.436Z,98090.25
2022-12-11T20:59:02.312Z,98101.38
2022-12-11T21:01:32.392Z,98094.91
2022-12-11T21:03:59.884Z,98092.28
2022-12-11T21:06:31.432Z,98084.66
2022-12-11T21:09:07.020Z,98083.34
2022-12-11T21:11:34.274Z,98086.34
2022-12-11T21:14:01.289Z,98109.50
2022-12-11T21:16:28.598Z,98116.25
2022-12-11T21:18:57.508Z,98126.69
2022-12-11T21:21:24.898Z,98128.84
2022-12-11T21:23:51.826Z,98121.38
2022-12-11T21:26:19.912Z,98112.97
2022-12-11T21:28:46.994Z,98106.19
2022-12-11T21:31:16.142Z,98093.09
2022-12-11T21:33:43.079Z,98097.00
2022-12-11T21:36:12.719Z,98101.66
2022-12-11T21:38:40.999Z,98095.88
2022-12-11T21:41:19.201Z,98101.81
2022-12-11T21:44:56.217Z,98106.63
2022-12-11T21:46:34.797Z,98110.22
2022-12-11T21:49:01.798Z,98113.19
2022-12-11T21:51:37.744Z,98114.44
2022-12-11T21:54:07.172Z,98099.00
2022-12-11T21:56:34.347Z,98100.97
2022-12-11T21:59:01.737Z,98095.25
2022-12-11T22:01:32.420Z,98090.06
2022-12-11T22:04:00.028Z,98087.75
2022-12-11T22:06:28.213Z,98090.19
2022-12-11T22:08:55.127Z,98103.16
2022-12-11T22:11:26.211Z,98094.72
2022-12-11T22:13:53.405Z,98113.91
2022-12-11T22:16:20.730Z,98125.28
2022-12-11T22:18:48.078Z,98122.34
2022-12-11T22:21:15.252Z,98127.44
2022-12-11T22:23:43.635Z,98120.72
2022-12-11T22:26:16.697Z,98146.25
2022-12-11T22:28:43.744Z,98158.84
2022-12-11T22:31:12.330Z,98161.19
2022-12-11T22:33:39.577Z,98172.50
2022-12-11T22:36:07.696Z,98178.31
2022-12-11T22:38:35.102Z,98181.03
2022-12-11T22:41:09.299Z,98181.47
2022-12-11T22:43:36.076Z,98186.63
2022-12-11T22:46:03.236Z,98185.50
2022-12-11T22:48:30.175Z,98195.38
2022-12-11T22:50:57.325Z,98198.19
2022-12-11T22:53:24.156Z,98203.41
2022-12-11T22:55:51.002Z,98197.91
2022-12-11T22:58:21.774Z,98203.25
2022-12-11T23:00:48.997Z,98216.13
2022-12-11T23:03:16.622Z,98215.41
2022-12-11T23:05:43.606Z,98215.56
2022-12-11T23:08:10.646Z,98208.94
2022-12-11T23:10:41.141Z,98226.47
2022-12-11T23:13:08.035Z,98217.38
2022-12-11T23:15:34.963Z,98220.38
2022-12-11T23:18:01.813Z,98217.66
2022-12-11T23:20:28.805Z,98222.91
2022-12-11T23:22:55.880Z,98230.97
2022-12-11T23:25:22.772Z,98218.88
2022-12-11T23:27:49.828Z,98229.09
2022-12-11T23:30:16.724Z,98229.78
2022-12-11T23:32:43.581Z,98231.72
2022-12-11T23:35:10.883Z,98231.91
2022-12-11T23:37:37.979Z,98235.63
2022-12-11T23:40:05.593Z,98241.75
2022-12-11T23:42:33.932Z,98238.09
2022-12-11T23:45:00.815Z,98250.13
2022-12-11T23:47:27.635Z,98247.16
2022-12-11T23:49:54.471Z,98253.00
2022-12-11T23:52:22.699Z,98258.19
2022-12-11T23:54:51.450Z,98265.06
2022-12-11T23:57:18.378Z,98276.81
2022-12-11T23:59:45.181Z,98275.00
